Time;durP1;ratioP1;P1;durP2;ratioP2;P2;SDS_P1;SDS_P2;PMS_P1;PMS_P2;Temp;Humidity;BMP_temperature;BMP_pressure;BME280_temperature;BME280_humidity;BME280_pressure;Samples;Min_cycle;Max_cycle;Signal;HPM_P1;HPM_P2
2022/04/21 00:00:16;;;;;;;32.33;21.90;;;16.40;64.30;;;;;;5072481;28;20108;-68
2022/04/21 00:02:42;;;;;;;32.53;22.13;;;16.30;64.50;;;;;;5072336;28;20122;-68
2022/04/21 00:05:11;;;;;;;35.40;21.73;;;16.30;64.60;;;;;;5073902;28;20028;-68
2022/04/21 00:07:37;;;;;;;34.95;21.35;;;16.30;64.70;;;;;;5079167;28;20047;-68
2022/04/21 00:10:07;;;;;;;35.03;22.13;;;16.30;65.60;;;;;;5073878;28;20150;-68
2022/04/21 00:12:34;;;;;;;33.47;22.73;;;16.30;64.70;;;;;;5072343;28;20024;-68
2022/04/21 00:15:04;;;;;;;36.30;22.85;;;16.30;64.80;;;;;;5073071;28;20029;-68
2022/04/21 00:17:30;;;;;;;34.13;22.35;;;16.30;64.90;;;;;;5083123;28;20032;-68
2022/04/21 00:19:56;;;;;;;32.03;22.23;;;16.20;64.90;;;;;;5072495;28;20031;-68
2022/04/21 00:25:06;;;;;;;37.47;22.92;;;16.20;65.60;;;;;;5072668;28;20059;-68
2022/04/21 00:27:40;;;;;;;33.88;21.65;;;16.20;65.90;;;;;;5073896;28;20085;-68
2022/04/21 00:30:06;;;;;;;35.83;23.50;;;16.10;66.00;;;;;;5072830;28;20024;-68
2022/04/21 00:32:39;;;;;;;38.10;23.20;;;16.10;66.10;;;;;;5075725;28;20028;-68
2022/04/21 00:35:08;;;;;;;36.92;23.20;;;16.10;66.10;;;;;;5069061;28;20132;-68
2022/04/21 00:37:44;;;;;;;37.88;22.40;;;16.10;66.20;;;;;;5087998;28;20394;-68
2022/04/21 00:40:11;;;;;;;35.60;23.58;;;16.10;66.20;;;;;;5070365;28;20025;-68
2022/04/21 00:42:37;;;;;;;38.22;24.58;;;16.10;66.30;;;;;;5071999;28;20126;-68
2022/04/21 00:45:03;;;;;;;38.92;24.08;;;16.10;66.40;;;;;;5072313;28;20127;-68
2022/04/21 00:47:30;;;;;;;36.00;23.52;;;16.10;66.40;;;;;;5083544;28;20032;-68
2022/04/21 00:49:56;;;;;;;33.72;21.95;;;16.10;66.60;;;;;;5072544;28;20024;-68
2022/04/21 00:52:22;;;;;;;37.78;23.58;;;16.00;66.80;;;;;;5092633;28;20035;-68
2022/04/21 00:54:48;;;;;;;35.22;23.23;;;16.00;66.80;;;;;;5079580;28;20467;-68
2022/04/21 00:57:15;;;;;;;34.28;23.13;;;16.00;66.80;;;;;;5079768;28;20044;-68
2022/04/21 00:59:43;;;;;;;38.20;24.48;;;16.00;66.80;;;;;;5075565;28;20111;-68
2022/04/21 01:04:54;;;;;;;33.95;23.90;;;16.00;66.70;;;;;;5074922;28;20062;-68
2022/04/21 01:07:20;;;;;;;36.75;23.50;;;15.90;66.80;;;;;;5090586;28;20032;-68
2022/04/21 01:09:46;;;;;;;35.42;24.02;;;15.90;67.00;;;;;;5082273;28;20102;-68
2022/04/21 01:12:13;;;;;;;40.70;24.73;;;15.90;67.30;;;;;;5075637;28;20128;-68
2022/04/21 01:14:39;;;;;;;38.53;25.08;;;15.80;67.40;;;;;;5075432;28;20056;-68
2022/04/21 01:17:09;;;;;;;39.97;24.50;;;15.80;67.40;;;;;;5084084;28;20052;-68
2022/04/21 01:19:35;;;;;;;37.25;24.85;;;15.80;67.60;;;;;;5091155;28;20023;-68
2022/04/21 01:22:01;;;;;;;35.55;25.08;;;15.80;67.60;;;;;;5088870;28;20098;-68
2022/04/21 01:24:27;;;;;;;33.72;25.00;;;15.80;67.70;;;;;;5078636;28;20035;-68
2022/04/21 01:26:55;;;;;;;39.00;25.17;;;15.80;67.90;;;;;;5076284;28;20068;-68
2022/04/21 01:29:21;;;;;;;38.47;25.55;;;15.70;67.90;;;;;;5074600;28;20110;-68
2022/04/21 01:31:47;;;;;;;39.05;25.52;;;15.70;68.00;;;;;;5071409;28;20050;-68
2022/04/21 01:34:12;;;;;;;38.55;25.05;;;15.70;68.10;;;;;;5076148;28;20047;-68
2022/04/21 01:41:08;;;;;;;39.08;24.88;;;15.70;68.30;;;;;;5084628;28;20085;-68
2022/04/21 01:42:17;;;;;;;37.45;24.77;;;15.70;68.40;;;;;;5089453;28;20035;-68
2022/04/21 01:44:43;;;;;;;37.17;25.77;;;15.60;68.40;;;;;;5084082;28;20028;-68
2022/04/21 01:47:11;;;;;;;40.30;24.98;;;15.60;68.50;;;;;;5082530;28;20040;-68
2022/04/21 01:49:37;;;;;;;41.53;25.42;;;15.60;68.70;;;;;;5074238;28;20372;-68
2022/04/21 01:52:03;;;;;;;36.47;25.10;;;15.60;68.90;;;;;;5088583;28;20615;-68
2022/04/21 01:54:29;;;;;;;39.67;24.95;;;15.60;69.10;;;;;;5076546;28;20028;-68
2022/04/21 01:56:54;;;;;;;39.20;25.65;;;15.50;69.10;;;;;;5075466;28;20025;-68
2022/04/21 01:59:20;;;;;;;36.58;25.02;;;15.50;69.20;;;;;;5073996;28;20016;-68
2022/04/21 02:01:46;;;;;;;39.78;25.48;;;15.50;69.20;;;;;;5073254;28;20228;-68
2022/04/21 02:04:11;;;;;;;39.78;25.63;;;15.50;69.20;;;;;;5077994;28;20054;-68
2022/04/21 02:06:37;;;;;;;42.85;25.70;;;15.50;69.20;;;;;;5076266;28;20127;-68
2022/04/21 02:09:03;;;;;;;36.83;24.75;;;15.50;69.40;;;;;;5074724;28;20028;-68
2022/04/21 02:11:29;;;;;;;38.92;25.75;;;15.50;69.40;;;;;;5074113;28;20025;-68
2022/04/21 02:13:55;;;;;;;35.67;24.52;;;15.50;69.40;;;;;;5086759;28;20024;-68
2022/04/21 02:16:21;;;;;;;35.70;24.55;;;15.50;69.40;;;;;;5077744;28;20622;-68
2022/04/21 02:18:47;;;;;;;36.30;25.45;;;15.50;69.60;;;;;;5075072;28;20384;-68
2022/04/21 02:21:13;;;;;;;39.25;26.23;;;15.50;69.60;;;;;;5080696;28;20031;-68
2022/04/21 02:23:38;;;;;;;40.78;26.25;;;15.40;69.60;;;;;;5083114;28;20447;-68
2022/04/21 02:26:04;;;;;;;35.88;25.55;;;15.50;69.70;;;;;;5087740;28;20494;-68
2022/04/21 02:28:30;;;;;;;40.95;26.30;;;15.40;69.80;;;;;;5077732;28;20024;-68
2022/04/21 02:30:56;;;;;;;42.67;26.75;;;15.40;69.80;;;;;;5073847;28;20028;-68
2022/04/21 02:33:21;;;;;;;42.25;25.75;;;15.40;69.90;;;;;;5073941;28;20116;-68
2022/04/21 02:35:47;;;;;;;36.28;25.80;;;15.40;70.10;;;;;;5073322;28;20147;-68
2022/04/21 02:38:13;;;;;;;43.33;27.15;;;15.40;70.40;;;;;;5074156;28;20114;-68
2022/04/21 02:40:39;;;;;;;41.15;27.75;;;15.30;70.40;;;;;;5071384;28;20434;-68
2022/04/21 02:43:06;;;;;;;43.05;28.35;;;15.30;70.80;;;;;;5085587;28;20051;-68
2022/04/21 02:45:32;;;;;;;40.75;27.15;;;15.30;71.00;;;;;;5077062;28;20033;-68
2022/04/21 02:47:58;;;;;;;45.22;28.05;;;15.30;71.00;;;;;;5073652;28;20028;-68
2022/04/21 02:50:24;;;;;;;45.08;28.10;;;15.30;71.00;;;;;;5073299;28;20035;-68
2022/04/21 02:52:51;;;;;;;45.33;28.02;;;15.20;71.00;;;;;;5084438;28;20040;-68
2022/04/21 02:58:04;;;;;;;44.05;28.45;;;15.20;71.20;;;;;;5072307;28;20047;-68
2022/04/21 03:00:29;;;;;;;43.08;28.42;;;15.20;71.30;;;;;;5084938;28;20024;-68
2022/04/21 03:02:56;;;;;;;46.65;29.30;;;15.20;71.60;;;;;;5080782;28;20019;-67
2022/04/21 03:05:22;;;;;;;40.97;28.02;;;15.20;71.80;;;;;;5073440;28;20040;-68
2022/04/21 03:07:48;;;;;;;44.33;29.92;;;15.20;72.00;;;;;;5071542;28;20031;-68
2022/04/21 03:10:14;;;;;;;44.90;30.10;;;15.20;72.00;;;;;;5071210;28;20074;-68
2022/04/21 03:12:39;;;;;;;44.60;30.30;;;15.20;72.30;;;;;;5083794;28;20063;-68
2022/04/21 03:15:06;;;;;;;46.78;30.02;;;15.20;72.50;;;;;;5079071;28;20035;-68
2022/04/21 03:17:32;;;;;;;49.20;29.92;;;15.10;72.70;;;;;;5072808;28;20127;-68
2022/04/21 03:19:58;;;;;;;42.45;28.65;;;15.10;73.00;;;;;;5072971;28;20146;-68
2022/04/21 03:25:11;;;;;;;49.30;30.60;;;15.10;73.50;;;;;;5074400;28;20032;-68
2022/04/21 03:27:37;;;;;;;44.42;29.83;;;15.00;73.70;;;;;;5072009;28;20089;-68
2022/04/21 03:30:11;;;;;;;47.22;31.00;;;15.00;73.90;;;;;;5073921;28;20479;-68
2022/04/21 03:32:37;;;;;;;45.47;29.65;;;15.00;74.10;;;;;;5072242;28;20074;-68
2022/04/21 03:35:03;;;;;;;45.65;29.88;;;15.00;74.30;;;;;;5072495;28;20084;-68
2022/04/21 03:37:29;;;;;;;46.55;29.88;;;15.00;74.30;;;;;;5069007;28;20032;-68
2022/04/21 03:39:55;;;;;;;44.20;29.02;;;14.90;74.40;;;;;;5073605;28;20032;-68
2022/04/21 03:42:27;;;;;;;45.42;30.35;;;14.90;74.50;;;;;;5073071;28;20035;-68
2022/04/21 03:44:54;;;;;;;48.13;31.20;;;14.90;74.60;;;;;;5072958;28;20024;-68
2022/04/21 03:47:20;;;;;;;49.53;32.17;;;14.90;74.70;;;;;;5072688;28;20467;-68
2022/04/21 03:49:46;;;;;;;46.78;31.02;;;14.90;74.80;;;;;;5070937;28;20028;-68
2022/04/21 03:52:13;;;;;;;50.05;31.90;;;14.90;75.00;;;;;;5087255;28;20031;-68
2022/04/21 03:54:39;;;;;;;47.83;32.20;;;14.90;75.30;;;;;;5072076;28;20023;-68
2022/04/21 03:57:06;;;;;;;45.25;30.50;;;14.90;75.50;;;;;;5071555;28;20040;-68
2022/04/21 03:59:33;;;;;;;47.35;31.95;;;14.80;75.60;;;;;;5072610;28;20060;-68
2022/04/21 04:02:05;;;;;;;45.80;31.65;;;14.80;75.60;;;;;;5068711;28;20028;-68
2022/04/21 04:04:32;;;;;;;56.25;31.98;;;14.80;75.60;;;;;;5072299;28;20025;-68
2022/04/21 04:12:35;;;;;;;46.92;31.05;;;14.80;75.60;;;;;;5074760;28;20051;-68
2022/04/21 04:15:03;;;;;;;48.40;31.88;;;14.80;75.70;;;;;;5079606;28;20016;-68
2022/04/21 04:17:28;;;;;;;50.50;33.22;;;14.80;75.60;;;;;;5072131;28;20086;-68
2022/04/21 04:19:54;;;;;;;48.10;31.10;;;14.80;75.70;;;;;;5068516;28;20458;-68
2022/04/21 04:22:20;;;;;;;46.88;30.88;;;14.80;75.80;;;;;;5088421;28;20032;-68
2022/04/21 04:24:46;;;;;;;49.17;31.55;;;14.70;75.90;;;;;;5073672;28;20577;-68
2022/04/21 04:27:12;;;;;;;47.47;32.50;;;14.70;76.00;;;;;;5076659;28;20028;-68
2022/04/21 04:29:37;;;;;;;48.78;32.20;;;14.70;76.00;;;;;;5085159;28;20035;-68
2022/04/21 04:32:04;;;;;;;49.72;32.22;;;14.70;76.00;;;;;;5079905;28;20085;-68
2022/04/21 04:34:29;;;;;;;50.15;33.22;;;14.70;76.10;;;;;;5090506;28;20047;-68
2022/04/21 04:36:55;;;;;;;46.97;30.52;;;14.70;76.10;;;;;;5090514;28;20036;-68
2022/04/21 04:39:21;;;;;;;47.60;30.95;;;14.70;76.30;;;;;;5087891;28;20102;-68
2022/04/21 04:44:31;;;;;;;49.67;32.70;;;14.60;76.30;;;;;;5083489;28;20073;-68
2022/04/21 04:46:57;;;;;;;47.33;33.15;;;14.70;76.40;;;;;;5077770;28;20433;-68
2022/04/21 04:49:23;;;;;;;49.38;32.22;;;14.60;76.50;;;;;;5078851;28;20041;-68
2022/04/21 04:51:50;;;;;;;53.15;33.47;;;14.60;76.60;;;;;;5084428;28;20051;-68
2022/04/21 04:54:17;;;;;;;49.20;32.42;;;14.60;76.70;;;;;;5085740;28;20038;-67
2022/04/21 04:56:44;;;;;;;50.05;32.35;;;14.60;76.80;;;;;;5086594;28;20048;-67
2022/04/21 04:59:11;;;;;;;50.63;33.13;;;14.60;77.00;;;;;;5076082;28;20449;-67
2022/04/21 05:01:41;;;;;;;48.75;33.00;;;14.60;77.10;;;;;;5097353;28;20039;-67
2022/04/21 05:04:11;;;;;;;52.50;33.60;;;14.50;77.20;;;;;;5091758;28;20024;-67
2022/04/21 05:06:48;;;;;;;55.38;32.90;;;14.50;77.30;;;;;;5082066;28;20046;-67
2022/04/21 05:09:18;;;;;;;52.38;34.15;;;14.50;77.30;;;;;;5085393;28;20040;-67
2022/04/21 05:11:48;;;;;;;49.53;32.93;;;14.40;77.50;;;;;;5080828;28;20039;-67
2022/04/21 05:14:15;;;;;;;53.13;33.70;;;14.40;77.70;;;;;;5079953;28;20294;-68
2022/04/21 05:16:41;;;;;;;53.33;33.83;;;14.40;77.70;;;;;;5089944;28;20471;-68
2022/04/21 05:19:08;;;;;;;54.83;33.33;;;14.40;77.90;;;;;;5086506;28;20100;-68
2022/04/21 05:21:35;;;;;;;48.20;32.47;;;14.40;77.90;;;;;;5086062;28;20019;-65
2022/04/21 05:24:03;;;;;;;51.83;33.30;;;14.40;77.80;;;;;;5074459;28;20446;-67
2022/04/21 05:26:30;;;;;;;52.40;34.53;;;14.40;77.60;;;;;;5079805;28;20032;-67
2022/04/21 05:28:57;;;;;;;58.55;36.75;;;14.30;77.60;;;;;;5077068;28;20031;-66
2022/04/21 05:31:25;;;;;;;51.92;35.72;;;14.40;77.80;;;;;;5072586;28;20154;-67
2022/04/21 05:33:52;;;;;;;57.47;35.60;;;14.40;77.80;;;;;;5087995;28;20085;-67
2022/04/21 05:36:18;;;;;;;57.00;35.35;;;14.40;77.90;;;;;;5087819;28;20040;-67
2022/04/21 05:38:46;;;;;;;49.63;32.47;;;14.30;77.90;;;;;;5079782;28;20108;-67
2022/04/21 05:41:14;;;;;;;55.17;34.25;;;14.40;77.90;;;;;;5084054;28;20020;-67
2022/04/21 05:43:42;;;;;;;52.55;34.58;;;14.30;77.80;;;;;;5072208;28;20043;-67
2022/04/21 05:46:10;;;;;;;66.18;34.90;;;14.40;77.90;;;;;;5073318;28;20689;-67
2022/04/21 05:48:36;;;;;;;50.65;35.47;;;14.40;77.70;;;;;;5076004;28;20483;-68
2022/04/21 05:51:03;;;;;;;52.78;34.60;;;14.40;77.50;;;;;;5076360;28;20028;-68
2022/04/21 05:53:33;;;;;;;51.63;33.78;;;14.50;77.50;;;;;;5076162;28;20182;-67
2022/04/21 05:55:59;;;;;;;53.13;33.75;;;14.40;77.40;;;;;;5086154;28;20054;-68
2022/04/21 05:58:26;;;;;;;49.53;32.75;;;14.40;77.40;;;;;;5082000;28;20391;-68
2022/04/21 06:00:52;;;;;;;54.90;33.95;;;14.40;77.40;;;;;;5078548;28;20029;-68
2022/04/21 06:03:18;;;;;;;53.83;33.97;;;14.50;77.40;;;;;;5079286;28;20032;-67
2022/04/21 06:05:44;;;;;;;49.88;33.00;;;14.40;77.20;;;;;;5075045;28;20033;-68
2022/04/21 06:08:09;;;;;;;57.30;34.83;;;14.50;77.00;;;;;;5081931;28;20024;-68
2022/04/21 06:10:36;;;;;;;51.85;33.00;;;14.50;76.80;;;;;;5074404;28;20020;-68
2022/04/21 06:13:05;;;;;;;52.67;35.40;;;14.50;76.70;;;;;;5084214;28;20556;-68
2022/04/21 06:15:31;;;;;;;55.35;35.55;;;14.50;76.70;;;;;;5077304;28;20103;-68
2022/04/21 06:18:00;;;;;;;54.90;34.50;;;14.60;76.60;;;;;;5077383;28;20090;-68
2022/04/21 06:20:27;;;;;;;58.53;33.65;;;14.60;76.50;;;;;;5076575;28;20546;-67
2022/04/21 06:22:53;;;;;;;50.47;32.83;;;14.70;76.20;;;;;;5086203;28;20032;-67
2022/04/21 06:25:19;;;;;;;44.58;32.25;;;14.90;75.00;;;;;;5085714;28;20058;-67
2022/04/21 06:27:45;;;;;;;57.50;36.03;;;15.10;74.20;;;;;;5083520;28;20059;-66
2022/04/21 06:30:11;;;;;;;55.92;34.47;;;15.40;73.00;;;;;;5079952;28;20021;-68
2022/04/21 06:32:37;;;;;;;60.60;36.80;;;15.80;71.30;;;;;;5077953;28;20411;-67
2022/04/21 06:35:04;;;;;;;55.78;36.63;;;16.20;69.50;;;;;;5087100;28;20040;-67
2022/04/21 06:37:30;;;;;;;58.17;37.00;;;16.60;67.60;;;;;;5083354;28;20081;-67
2022/04/21 06:39:56;;;;;;;57.28;36.10;;;16.90;66.90;;;;;;5074538;28;20036;-67
2022/04/21 06:42:22;;;;;;;56.10;37.10;;;16.80;67.20;;;;;;5082746;28;20552;-68
2022/04/21 06:50:16;;;;;;;57.83;36.67;;;17.50;65.40;;;;;;5084606;28;20023;-67
2022/04/21 06:52:41;;;;;;;56.55;37.35;;;17.40;65.80;;;;;;5086922;28;20032;-67
2022/04/21 06:55:08;;;;;;;58.63;38.08;;;17.10;67.70;;;;;;5083719;28;20565;-67
2022/04/21 06:57:33;;;;;;;57.85;37.65;;;16.90;68.70;;;;;;5079809;28;20047;-67
2022/04/21 06:59:59;;;;;;;60.13;37.53;;;16.80;69.30;;;;;;5082325;28;20576;-67
2022/04/21 07:02:31;;;;;;;60.90;38.13;;;16.70;69.80;;;;;;5082040;28;20032;-68
2022/04/21 07:05:04;;;;;;;60.60;37.47;;;16.60;70.50;;;;;;5073216;28;20028;-68
2022/04/21 07:07:30;;;;;;;56.83;37.10;;;16.50;70.90;;;;;;5085472;28;20016;-67
2022/04/21 07:09:56;;;;;;;55.75;34.80;;;16.50;71.00;;;;;;5078098;28;20498;-68
2022/04/21 07:12:29;;;;;;;56.58;37.42;;;16.50;71.00;;;;;;5077311;28;20750;-67
2022/04/21 07:15:02;;;;;;;56.78;36.47;;;16.50;70.90;;;;;;5072842;28;20035;-68
2022/04/21 07:17:28;;;;;;;56.95;37.58;;;16.50;71.00;;;;;;5073927;28;20036;-67
2022/04/21 07:19:54;;;;;;;57.60;37.60;;;16.50;71.00;;;;;;5071616;28;20032;-67
2022/04/21 07:22:22;;;;;;;56.03;37.33;;;16.50;71.20;;;;;;5084085;28;20415;-67
2022/04/21 07:24:48;;;;;;;53.65;36.17;;;16.50;71.00;;;;;;5074023;28;20103;-68
2022/04/21 07:27:14;;;;;;;52.95;36.72;;;16.60;70.90;;;;;;5072806;28;20029;-69
2022/04/21 07:29:39;;;;;;;52.63;36.38;;;16.60;70.70;;;;;;5075678;28;20391;-68
2022/04/21 07:32:05;;;;;;;56.00;37.65;;;16.70;70.50;;;;;;5069207;28;20028;-68
2022/04/21 07:34:31;;;;;;;58.10;36.60;;;16.70;70.40;;;;;;5072061;28;20021;-69
2022/04/21 07:36:57;;;;;;;53.45;36.03;;;16.70;70.30;;;;;;5072519;28;20053;-68
2022/04/21 07:39:23;;;;;;;55.35;35.45;;;16.80;70.00;;;;;;5072606;28;20017;-67
2022/04/21 07:41:48;;;;;;;51.55;34.70;;;17.00;70.50;;;;;;5072314;28;20025;-67
2022/04/21 07:44:16;;;;;;;52.95;33.63;;;17.30;68.50;;;;;;5072741;28;20393;-68
2022/04/21 07:46:42;;;;;;;48.65;33.70;;;17.80;66.60;;;;;;5082077;28;20024;-67
2022/04/21 07:53:13;;;;;;;44.08;30.45;;;19.00;62.90;;;;;;5082391;28;20055;-67
2022/04/21 07:54:38;;;;;;;43.63;28.95;;;19.50;60.30;;;;;;5080831;28;20024;-68
2022/04/21 07:57:04;;;;;;;44.80;28.95;;;20.10;58.10;;;;;;5085667;28;20039;-68
2022/04/21 07:59:30;;;;;;;38.00;24.67;;;20.50;56.20;;;;;;5080387;28;20047;-68
2022/04/21 08:01:56;;;;;;;39.10;24.20;;;21.00;54.00;;;;;;5086827;28;20071;-68
2022/04/21 08:04:22;;;;;;;33.00;22.30;;;21.60;52.00;;;;;;5068777;28;20032;-68
2022/04/21 08:06:49;;;;;;;30.83;22.38;;;22.50;48.30;;;;;;5072502;28;20029;-68
2022/04/21 08:09:14;;;;;;;28.73;19.17;;;23.50;44.20;;;;;;5071964;28;20020;-68
2022/04/21 08:11:40;;;;;;;24.35;16.23;;;24.60;40.30;;;;;;5076964;28;20029;-68
2022/04/21 08:14:06;;;;;;;26.75;18.17;;;25.50;36.70;;;;;;5069313;28;20052;-69
2022/04/21 08:16:32;;;;;;;31.15;18.80;;;26.50;33.30;;;;;;5071160;28;20134;-68
2022/04/21 08:18:59;;;;;;;28.10;18.65;;;27.30;30.90;;;;;;5073320;28;20448;-68
2022/04/21 08:21:25;;;;;;;25.25;17.42;;;28.10;29.60;;;;;;5081549;28;20024;-68
2022/04/21 08:23:51;;;;;;;31.13;15.63;;;28.70;28.50;;;;;;5078884;28;20024;-68
2022/04/21 08:34:30;;;;;;;19.42;13.20;;;30.30;25.30;;;;;;5085043;28;20039;-68
2022/04/21 08:36:56;;;;;;;20.30;12.85;;;30.70;24.90;;;;;;5081689;28;20040;-68
2022/04/21 08:39:22;;;;;;;24.88;12.88;;;31.00;23.80;;;;;;5076121;28;20562;-68
2022/04/21 08:41:51;;;;;;;18.90;12.40;;;31.10;23.40;;;;;;5071499;28;20055;-68
2022/04/21 08:44:19;;;;;;;20.15;12.73;;;31.30;23.10;;;;;;5071775;28;20065;-68
2022/04/21 08:46:47;;;;;;;21.42;12.57;;;31.50;22.90;;;;;;5068024;28;20035;-68
2022/04/21 08:49:17;;;;;;;20.40;11.85;;;31.50;23.00;;;;;;5073445;28;20068;-68
2022/04/21 08:51:43;;;;;;;17.33;12.15;;;31.10;22.80;;;;;;5081245;28;20584;-68
2022/04/21 08:54:08;;;;;;;19.45;12.27;;;30.60;23.30;;;;;;5086960;28;20063;-68
2022/04/21 08:56:34;;;;;;;22.95;11.95;;;29.90;24.10;;;;;;5082300;28;20033;-68
2022/04/21 08:59:00;;;;;;;19.58;11.80;;;29.60;24.40;;;;;;5068039;28;20108;-68
2022/04/21 09:01:26;;;;;;;16.33;9.50;;;29.20;24.40;;;;;;5088323;28;20063;-68
2022/04/21 09:03:52;;;;;;;15.70;10.23;;;28.80;24.60;;;;;;5079285;28;21414;-68
2022/04/21 09:06:22;;;;;;;17.67;10.90;;;28.20;24.90;;;;;;5076110;28;20029;-68
2022/04/21 09:08:48;;;;;;;19.15;10.05;;;27.40;25.90;;;;;;5071988;28;20028;-67
2022/04/21 09:11:17;;;;;;;14.63;9.40;;;26.60;27.20;;;;;;5070856;28;21979;-68
2022/04/21 09:13:46;;;;;;;16.70;9.63;;;26.00;28.30;;;;;;5074656;28;20048;-68
2022/04/21 09:16:12;;;;;;;14.73;8.90;;;25.70;28.70;;;;;;5073446;28;20024;-68
2022/04/21 09:18:43;;;;;;;19.25;9.02;;;25.50;28.90;;;;;;5075621;28;20040;-68
2022/04/21 09:21:16;;;;;;;14.63;8.70;;;25.50;29.50;;;;;;5081874;28;20020;-68
2022/04/21 09:23:49;;;;;;;16.42;8.63;;;25.50;28.60;;;;;;5083755;28;20028;-69
2022/04/21 09:26:20;;;;;;;13.65;8.48;;;25.50;28.60;;;;;;5074670;28;20018;-69
2022/04/21 09:28:57;;;;;;;14.32;8.70;;;25.50;27.30;;;;;;5085614;28;20043;-69
2022/04/21 09:31:27;;;;;;;16.58;8.63;;;25.40;27.90;;;;;;5091345;28;20082;-69
2022/04/21 09:33:54;;;;;;;14.15;8.65;;;25.20;28.80;;;;;;5082032;28;20036;-68
2022/04/21 09:36:20;;;;;;;10.90;6.50;;;25.10;29.00;;;;;;5078746;28;20166;-68
2022/04/21 09:39:01;;;;;;;14.15;6.78;;;25.20;28.80;;;;;;5081271;28;20106;-68
2022/04/21 09:41:31;;;;;;;11.02;6.65;;;25.30;28.00;;;;;;5087302;28;20048;-68
2022/04/21 09:46:58;;;;;;;15.55;8.10;;;25.50;27.90;;;;;;5070314;28;20134;-68
2022/04/21 09:49:35;;;;;;;12.85;7.20;;;25.60;28.30;;;;;;5086362;28;20028;-68
2022/04/21 09:52:01;;;;;;;13.30;7.22;;;25.80;26.80;;;;;;5087580;28;20081;-68
2022/04/21 09:54:29;;;;;;;21.13;6.88;;;25.80;26.40;;;;;;5076289;28;20027;-67
2022/04/21 09:56:59;;;;;;;12.45;6.35;;;25.80;27.00;;;;;;5076628;28;20083;-68
2022/04/21 09:59:25;;;;;;;10.90;5.85;;;26.00;26.50;;;;;;5085893;28;20499;-68
2022/04/21 10:01:51;;;;;;;11.48;5.55;;;26.20;24.80;;;;;;5079522;28;20047;-68
2022/04/21 10:04:20;;;;;;;11.70;5.72;;;26.20;24.20;;;;;;5088692;28;20029;-68
2022/04/21 10:06:47;;;;;;;7.97;5.75;;;26.30;24.40;;;;;;5086087;28;20081;-67
2022/04/21 10:09:14;;;;;;;17.50;5.40;;;26.40;24.70;;;;;;5087863;28;20036;-67
2022/04/21 10:11:42;;;;;;;9.13;5.25;;;26.60;23.00;;;;;;5085645;28;20077;-68
2022/04/21 10:14:12;;;;;;;10.77;5.05;;;26.60;24.10;;;;;;5088320;28;20036;-69
2022/04/21 10:16:42;;;;;;;9.95;5.38;;;26.70;23.50;;;;;;5082162;28;20044;-68
2022/04/21 10:19:12;;;;;;;9.60;5.22;;;26.80;23.10;;;;;;5087761;28;20032;-68
2022/04/21 10:22:04;;;;;;;10.57;5.78;;;26.90;23.90;;;;;;5085359;28;20487;-69
2022/04/21 10:24:34;;;;;;;9.80;5.28;;;27.00;24.00;;;;;;5077037;28;20051;-69
2022/04/21 10:27:00;;;;;;;13.02;5.72;;;27.10;23.50;;;;;;5073543;28;20040;-68
2022/04/21 10:29:27;;;;;;;8.35;5.60;;;27.30;22.70;;;;;;5086901;28;20020;-68
2022/04/21 10:32:00;;;;;;;11.90;5.53;;;27.50;21.90;;;;;;5080087;28;20637;-67
2022/04/21 10:34:40;;;;;;;9.20;5.32;;;27.60;22.00;;;;;;5085799;28;20032;-68
2022/04/21 10:37:14;;;;;;;12.07;5.38;;;27.60;20.30;;;;;;5085336;28;20433;-68
2022/04/21 10:40:04;;;;;;;13.02;5.90;;;27.40;21.50;;;;;;5075280;28;20049;-69
2022/04/21 10:42:50;;;;;;;10.48;5.60;;;27.30;21.50;;;;;;5072157;28;20025;-68
2022/04/21 10:45:25;;;;;;;8.65;5.38;;;27.40;22.40;;;;;;5076106;28;20111;-68
2022/04/21 10:48:13;;;;;;;10.18;4.72;;;27.60;22.10;;;;;;5079465;28;20024;-68
2022/04/21 10:50:40;;;;;;;8.15;4.75;;;27.70;23.40;;;;;;5081613;28;20059;-68
2022/04/21 10:58:39;;;;;;;7.30;5.07;;;28.30;22.00;;;;;;5082785;28;20058;-68
2022/04/21 11:01:11;;;;;;;12.70;5.60;;;28.60;22.40;;;;;;5077284;28;20478;-69
2022/04/21 11:03:37;;;;;;;8.57;5.25;;;28.80;20.90;;;;;;5087495;28;20028;-67
2022/04/21 11:06:13;;;;;;;8.65;5.00;;;28.90;20.80;;;;;;5078144;28;20077;-68
2022/04/21 11:08:40;;;;;;;8.90;5.00;;;29.00;21.50;;;;;;5071503;28;20032;-68
2022/04/21 11:11:06;;;;;;;11.75;4.85;;;29.20;22.10;;;;;;5083391;28;20043;-68
2022/04/21 11:13:52;;;;;;;8.10;5.20;;;29.30;21.80;;;;;;5072484;28;20043;-68
2022/04/21 11:16:47;;;;;;;10.50;4.63;;;29.50;21.30;;;;;;5073820;28;20047;-68
2022/04/21 11:19:33;;;;;;;8.45;4.75;;;29.60;20.00;;;;;;5083765;28;20032;-68
2022/04/21 11:22:09;;;;;;;8.35;4.18;;;29.70;20.60;;;;;;5085739;28;20039;-69
2022/04/21 11:24:58;;;;;;;6.90;4.10;;;29.70;20.60;;;;;;5082912;28;20050;-68
2022/04/21 11:27:27;;;;;;;9.35;4.47;;;29.80;20.30;;;;;;5083530;28;20032;-69
2022/04/21 11:30:08;;;;;;;8.98;4.45;;;29.80;21.10;;;;;;5083620;28;20061;-69
2022/04/21 11:32:34;;;;;;;;;;;30.00;20.40;;;;;;5083770;28;20023;-69
2022/04/21 11:35:10;;;;;;;6.53;4.60;;;30.10;20.10;;;;;;5071088;28;19919;-68
2022/04/21 11:37:55;;;;;;;7.70;4.20;;;30.20;20.10;;;;;;5077377;28;20028;-68
2022/04/21 11:40:31;;;;;;;9.70;4.18;;;30.40;19.80;;;;;;5073896;28;20050;-69
2022/04/21 11:43:00;;;;;;;10.80;4.30;;;30.50;19.30;;;;;;5079956;28;20468;-68
2022/04/21 11:45:28;;;;;;;6.38;4.43;;;30.60;19.40;;;;;;5080618;28;20063;-68
2022/04/21 11:47:54;;;;;;;7.05;4.10;;;30.80;19.80;;;;;;5080715;28;20186;-68
2022/04/21 11:50:25;;;;;;;9.07;4.32;;;30.90;19.10;;;;;;5072688;28;20031;-68
2022/04/21 11:52:55;;;;;;;8.15;4.70;;;31.00;19.70;;;;;;5085447;28;20107;-68
2022/04/21 11:55:28;;;;;;;8.18;4.40;;;31.10;19.30;;;;;;5069729;28;20081;-68
2022/04/21 11:57:55;;;;;;;8.60;4.22;;;30.90;19.70;;;;;;5072422;28;20062;-68
2022/04/21 12:08:48;;;;;;;8.05;4.00;;;31.20;19.50;;;;;;5071939;28;20031;-68
2022/04/21 12:11:19;;;;;;;7.07;3.85;;;31.50;19.60;;;;;;5070881;28;20476;-68
2022/04/21 12:13:46;;;;;;;6.47;4.20;;;31.80;19.80;;;;;;5071788;28;20040;-68
2022/04/21 12:16:34;;;;;;;9.55;4.15;;;31.80;19.60;;;;;;5089091;28;20086;-68
2022/04/21 12:19:15;;;;;;;17.30;4.90;;;32.00;19.40;;;;;;5071814;28;20039;-68
2022/04/21 12:21:41;;;;;;;8.43;4.93;;;32.20;19.10;;;;;;5083615;28;20435;-68
2022/04/21 12:24:14;;;;;;;8.50;4.75;;;32.30;19.00;;;;;;5076374;28;20055;-68
2022/04/21 12:26:51;;;;;;;9.40;4.57;;;32.50;18.90;;;;;;5071592;28;20036;-68
2022/04/21 12:29:19;;;;;;;10.40;4.50;;;32.80;18.80;;;;;;5073030;28;20064;-68
2022/04/21 12:31:52;;;;;;;9.20;4.47;;;33.10;18.30;;;;;;5086414;28;20016;-68
2022/04/21 12:34:23;;;;;;;7.72;4.78;;;33.60;18.20;;;;;;5069374;28;20061;-68
2022/04/21 12:37:13;;;;;;;9.32;4.35;;;34.10;17.10;;;;;;5071708;28;20052;-68
2022/04/21 12:39:40;;;;;;;6.53;4.20;;;34.60;16.80;;;;;;5071703;28;20033;-68
2022/04/21 12:42:08;;;;;;;7.90;4.45;;;35.10;16.70;;;;;;5071906;28;20639;-68
2022/04/21 12:44:34;;;;;;;9.27;4.03;;;34.90;17.00;;;;;;5073236;28;20024;-68
2022/04/21 12:47:01;;;;;;;6.60;3.78;;;34.30;17.20;;;;;;5073886;28;20039;-68
2022/04/21 12:49:57;;;;;;;7.20;4.10;;;34.70;16.70;;;;;;5072809;28;20028;-69
2022/04/21 12:52:39;;;;;;;8.23;3.83;;;35.50;15.50;;;;;;5088785;28;20039;-68
2022/04/21 12:55:09;;;;;;;6.88;3.90;;;36.00;15.60;;;;;;5080442;28;20047;-68
2022/04/21 12:57:36;;;;;;;9.23;4.00;;;36.60;14.90;;;;;;5086858;28;20107;-68
2022/04/21 13:00:06;;;;;;;5.97;3.50;;;36.90;14.30;;;;;;5085132;28;20030;-68
2022/04/21 13:02:32;;;;;;;7.72;3.55;;;37.10;15.00;;;;;;5085966;28;20021;-68
2022/04/21 13:04:57;;;;;;;5.75;2.83;;;37.30;14.40;;;;;;5075142;28;20123;-69
2022/04/21 13:07:24;;;;;;;5.15;2.85;;;37.60;14.90;;;;;;5078795;28;20081;-68
2022/04/21 13:09:50;;;;;;;5.72;2.97;;;37.30;14.30;;;;;;5075607;28;20115;-68
2022/04/21 13:12:16;;;;;;;5.15;2.92;;;35.80;15.30;;;;;;5075260;28;20071;-68
2022/04/21 13:14:42;;;;;;;7.63;2.97;;;34.50;16.10;;;;;;5075418;28;20027;-68
2022/04/21 13:17:08;;;;;;;6.97;2.85;;;35.20;15.90;;;;;;5074367;28;20458;-69
2022/04/21 13:19:34;;;;;;;6.93;2.70;;;36.10;15.40;;;;;;5082660;28;20017;-68
2022/04/21 13:22:01;;;;;;;4.25;2.50;;;36.70;14.30;;;;;;5089109;28;20036;-68
2022/04/21 13:24:28;;;;;;;5.13;2.55;;;37.30;14.40;;;;;;5078434;28;20032;-68
2022/04/21 13:26:56;;;;;;;8.32;2.78;;;37.70;14.20;;;;;;5074260;28;20040;-68
2022/04/21 13:29:22;;;;;;;6.38;3.13;;;37.80;13.80;;;;;;5074343;28;20028;-68
2022/04/21 13:34:34;;;;;;;5.03;2.42;;;38.30;13.50;;;;;;5087394;28;20539;-68
2022/04/21 13:37:01;;;;;;;7.38;2.70;;;38.50;13.30;;;;;;5073617;28;20070;-68